createdAt,value
2022-09-12T00:00:52.543Z,16.00
2022-09-12T00:05:55.441Z,15.80
2022-09-12T00:10:58.336Z,17.73
2022-09-12T00:16:02.997Z,17.58
2022-09-12T00:21:06.427Z,17.67
2022-09-12T00:26:09.737Z,18.05
2022-09-12T00:31:16.235Z,17.25
2022-09-12T00:36:22.845Z,16.50
2022-09-12T00:41:27.810Z,15.35
2022-09-12T00:46:40.280Z,15.85
2022-09-12T00:51:47.646Z,16.73
2022-09-12T00:56:54.150Z,16.02
2022-09-12T01:01:59.077Z,16.95
2022-09-12T01:07:02.032Z,14.45
2022-09-12T01:12:06.211Z,16.67
2022-09-12T01:17:13.779Z,16.00
2022-09-12T01:22:37.062Z,16.77
2022-09-12T01:28:03.528Z,17.23
2022-09-12T01:33:39.538Z,17.55
2022-09-12T01:38:48.729Z,18.58
2022-09-12T01:43:59.727Z,19.65
2022-09-12T01:49:10.780Z,19.25
2022-09-12T01:54:19.699Z,20.20
2022-09-12T01:59:28.641Z,19.98
2022-09-12T02:04:37.973Z,21.00
2022-09-12T02:09:47.173Z,19.30
2022-09-12T02:14:54.463Z,22.42
2022-09-12T02:20:04.329Z,21.38
2022-09-12T02:25:10.392Z,22.15
2022-09-12T02:30:16.708Z,19.73
2022-09-12T02:35:32.917Z,18.80
2022-09-12T02:40:37.020Z,18.85
2022-09-12T02:45:39.894Z,18.95
2022-09-12T02:50:44.621Z,18.75
2022-09-12T02:55:47.999Z,19.73
2022-09-12T03:00:56.000Z,17.02
2022-09-12T03:06:02.105Z,19.27
2022-09-12T03:11:34.084Z,18.08
2022-09-12T03:16:44.819Z,17.90
2022-09-12T03:22:00.154Z,20.00
2022-09-12T03:27:10.942Z,21.30
2022-09-12T03:32:13.751Z,24.63
2022-09-12T03:37:17.989Z,23.20
2022-09-12T03:42:20.730Z,22.70
2022-09-12T03:52:27.680Z,25.35
2022-09-12T03:57:30.742Z,23.58
2022-09-12T04:02:33.609Z,24.65
2022-09-12T04:07:37.820Z,22.35
2022-09-12T04:12:40.931Z,21.55
2022-09-12T04:17:43.720Z,21.67
2022-09-12T04:22:47.841Z,21.92
2022-09-12T04:27:50.652Z,23.63
2022-09-12T04:32:53.434Z,22.02
2022-09-12T04:37:57.722Z,21.73
2022-09-12T04:43:00.713Z,24.77
2022-09-12T04:48:03.804Z,22.77
2022-09-12T04:53:07.923Z,22.00
2022-09-12T04:58:10.733Z,22.13
2022-09-12T05:03:14.192Z,22.02
2022-09-12T05:08:18.672Z,21.88
2022-09-12T05:13:22.124Z,20.75
2022-09-12T05:18:26.497Z,20.58
2022-09-12T05:23:31.533Z,21.00
2022-09-12T05:28:36.371Z,21.65
2022-09-12T05:33:40.769Z,22.15
2022-09-12T05:38:45.359Z,22.00
2022-09-12T05:43:49.128Z,20.17
2022-09-12T05:48:55.843Z,20.83
2022-09-12T05:54:03.243Z,21.73
2022-09-12T05:59:07.945Z,19.80
2022-09-12T06:04:11.012Z,21.63
2022-09-12T06:09:16.805Z,19.08
2022-09-12T06:14:19.819Z,20.10
2022-09-12T06:19:25.059Z,19.70
2022-09-12T06:24:29.396Z,19.92
2022-09-12T06:29:32.883Z,19.77
2022-09-12T06:34:36.530Z,19.52
2022-09-12T06:39:40.713Z,5.88
2022-09-12T06:44:44.354Z,14.38
2022-09-12T06:49:47.115Z,12.95
2022-09-12T06:54:51.282Z,13.15
2022-09-12T06:59:54.163Z,12.93
2022-09-12T07:04:56.986Z,11.68
2022-09-12T07:10:01.137Z,12.75
2022-09-12T07:15:03.943Z,13.40
2022-09-12T07:20:07.865Z,12.65
2022-09-12T07:25:12.138Z,11.63
2022-09-12T07:30:14.973Z,13.13
2022-09-12T07:35:18.122Z,11.55
2022-09-12T07:40:22.980Z,10.70
2022-09-12T07:45:26.955Z,10.95
2022-09-12T07:50:29.858Z,10.95
2022-09-12T07:55:34.247Z,9.43
2022-09-12T08:00:37.798Z,11.02
2022-09-12T08:05:40.916Z,11.52
2022-09-12T08:10:45.134Z,9.50
2022-09-12T08:15:47.980Z,10.32
2022-09-12T08:20:57.660Z,9.32
2022-09-12T08:26:06.163Z,6.85
2022-09-12T08:31:12.235Z,9.27
2022-09-12T08:36:16.949Z,8.27
2022-09-12T08:41:30.379Z,7.68
2022-09-12T08:46:37.564Z,7.28
2022-09-12T08:51:41.749Z,6.40
2022-09-12T08:56:47.730Z,6.78
2022-09-12T09:01:58.390Z,5.00
2022-09-12T09:07:33.106Z,8.68
2022-09-12T09:12:47.617Z,7.55
2022-09-12T09:17:55.060Z,7.68
2022-09-12T09:23:03.427Z,6.75
2022-09-12T09:28:15.157Z,6.65
2022-09-12T09:33:23.508Z,6.13
2022-09-12T09:38:32.715Z,5.55
2022-09-12T09:43:39.375Z,6.43
2022-09-12T09:48:46.130Z,6.45
2022-09-12T09:53:53.219Z,5.13
2022-09-12T09:58:57.455Z,5.47
2022-09-12T10:04:00.626Z,5.93
2022-09-12T10:09:18.751Z,5.00
2022-09-12T10:14:38.482Z,5.45
2022-09-12T10:19:41.563Z,5.10
2022-09-12T10:24:50.180Z,5.75
2022-09-12T10:30:01.631Z,6.10
2022-09-12T10:35:09.141Z,5.93
2022-09-12T10:40:25.237Z,5.55
2022-09-12T10:45:32.410Z,6.32
2022-09-12T10:50:38.426Z,4.90
2022-09-12T10:55:46.825Z,5.18
2022-09-12T11:01:03.253Z,5.22
2022-09-12T11:06:07.825Z,5.32
2022-09-12T11:11:25.031Z,5.43
2022-09-12T11:16:43.132Z,4.72
2022-09-12T11:22:01.827Z,4.95
2022-09-12T11:27:20.805Z,5.50
2022-09-12T11:32:41.887Z,4.13
2022-09-12T11:38:07.640Z,4.82
2022-09-12T11:43:21.804Z,4.82
2022-09-12T11:48:39.427Z,4.90
2022-09-12T11:53:44.679Z,5.65
2022-09-12T11:58:56.756Z,5.35
2022-09-12T12:04:07.625Z,5.35
2022-09-12T12:09:12.795Z,4.50
2022-09-12T12:14:18.921Z,4.43
2022-09-12T12:19:34.836Z,3.65
2022-09-12T12:25:04.777Z,4.50
2022-09-12T12:30:59.720Z,3.97
2022-09-12T12:36:09.843Z,4.18
2022-09-12T12:41:44.758Z,4.13
2022-09-12T12:47:15.629Z,4.00
2022-09-12T12:52:20.800Z,4.30
2022-09-12T12:57:42.204Z,3.63
2022-09-12T13:02:53.528Z,4.57
2022-09-12T13:08:01.747Z,4.25
2022-09-12T13:13:08.615Z,3.83
2022-09-12T13:18:14.598Z,4.00
2022-09-12T13:23:27.875Z,4.07
2022-09-12T13:28:31.860Z,3.92
2022-09-12T13:33:39.102Z,3.55
2022-09-12T13:38:55.397Z,4.80
2022-09-12T13:43:58.401Z,3.92
2022-09-12T13:49:07.759Z,4.32
2022-09-12T13:54:24.319Z,4.00
2022-09-12T13:59:28.053Z,4.70
2022-09-12T14:04:48.496Z,3.83
2022-09-12T14:09:57.023Z,4.40
2022-09-12T14:15:00.036Z,4.50
2022-09-12T14:20:07.131Z,4.07
2022-09-12T14:25:17.221Z,4.10
2022-09-12T14:30:26.510Z,3.90
2022-09-12T14:35:29.602Z,3.67
2022-09-12T14:40:42.762Z,3.53
2022-09-12T14:45:52.611Z,3.38
2022-09-12T14:50:55.889Z,3.75
2022-09-12T14:56:09.019Z,4.35
2022-09-12T15:01:27.924Z,4.40
2022-09-12T15:06:33.210Z,3.97
2022-09-12T15:11:37.413Z,3.78
2022-09-12T15:16:40.323Z,3.65
2022-09-12T15:21:43.204Z,4.45
2022-09-12T15:26:47.556Z,3.90
2022-09-12T15:31:52.560Z,3.97
2022-09-12T15:36:55.565Z,3.70
2022-09-12T15:41:59.771Z,4.10
2022-09-12T15:47:02.657Z,4.60
2022-09-12T15:52:05.687Z,3.72
2022-09-12T15:57:10.646Z,3.85
2022-09-12T16:02:13.550Z,4.20
2022-09-12T16:07:16.449Z,3.95
2022-09-12T16:12:20.666Z,4.25
2022-09-12T16:17:24.015Z,3.78
2022-09-12T16:22:26.895Z,3.70
2022-09-12T16:27:31.171Z,3.58
2022-09-12T16:32:34.579Z,4.25
2022-09-12T16:37:38.004Z,4.30
2022-09-12T16:42:43.884Z,3.83
2022-09-12T16:47:46.840Z,3.83
2022-09-12T16:52:49.839Z,3.53
2022-09-12T16:57:54.177Z,3.40
2022-09-12T17:02:57.197Z,3.60
2022-09-12T17:08:00.642Z,3.55
2022-09-12T17:13:04.897Z,3.83
2022-09-12T17:18:07.955Z,3.33
2022-09-12T17:23:10.831Z,3.80
2022-09-12T17:28:15.736Z,3.83
2022-09-12T17:33:18.745Z,3.42
2022-09-12T17:38:25.278Z,3.60
2022-09-12T17:43:29.998Z,3.45
2022-09-12T17:48:33.152Z,5.45
2022-09-12T17:53:36.102Z,4.00
2022-09-12T17:58:40.612Z,3.80
2022-09-12T18:03:43.422Z,3.88
2022-09-12T18:08:46.434Z,4.07
2022-09-12T18:13:50.903Z,3.58
2022-09-12T18:18:53.855Z,4.00
2022-09-12T18:23:58.951Z,4.07
2022-09-12T18:29:03.293Z,3.50
2022-09-12T18:34:07.766Z,4.05
2022-09-12T18:39:11.247Z,6.78
2022-09-12T18:44:15.467Z,8.82
2022-09-12T18:49:18.468Z,6.40
2022-09-12T18:54:21.687Z,4.80
2022-09-12T18:59:26.162Z,6.50
2022-09-12T19:04:29.165Z,5.88
2022-09-12T19:09:31.974Z,4.50
2022-09-12T19:14:36.318Z,5.40
2022-09-12T19:19:40.648Z,4.65
2022-09-12T19:24:43.645Z,5.15
2022-09-12T19:29:47.929Z,5.03
2022-09-12T19:34:50.903Z,4.72
2022-09-12T19:39:53.777Z,5.60
2022-09-12T19:44:57.968Z,5.10
2022-09-12T19:50:00.823Z,5.10
2022-09-12T19:55:03.891Z,5.20
2022-09-12T20:00:09.600Z,5.07
2022-09-12T20:05:12.621Z,5.10
2022-09-12T20:10:15.718Z,4.80
2022-09-12T20:15:20.136Z,4.57
2022-09-12T20:20:25.084Z,5.35
2022-09-12T20:25:27.898Z,5.10
2022-09-12T20:30:32.311Z,5.25
2022-09-12T20:35:35.154Z,5.00
2022-09-12T20:40:38.092Z,5.47
2022-09-12T20:45:42.932Z,5.13
2022-09-12T20:50:45.725Z,5.63
2022-09-12T20:55:52.330Z,5.07
2022-09-12T21:00:56.536Z,5.22
2022-09-12T21:05:59.403Z,5.32
2022-09-12T21:11:02.678Z,4.78
2022-09-12T21:16:09.100Z,5.40
2022-09-12T21:21:13.015Z,5.00
2022-09-12T21:26:15.865Z,4.70
2022-09-12T21:38:07.937Z,4.75
2022-09-12T21:43:13.042Z,4.15
2022-09-12T21:48:15.896Z,5.00
2022-09-12T21:53:19.887Z,4.60
2022-09-12T21:58:22.673Z,4.72
2022-09-12T22:03:25.998Z,4.93
2022-09-12T22:08:31.208Z,5.45
2022-09-12T22:13:33.952Z,5.03
2022-09-12T22:18:38.020Z,6.05
2022-09-12T22:23:59.690Z,5.53
2022-09-12T22:29:02.476Z,5.40
2022-09-12T22:34:05.352Z,5.47
2022-09-12T22:39:09.769Z,6.00
2022-09-12T22:44:12.816Z,5.90
2022-09-12T22:49:15.561Z,5.10
2022-09-12T22:54:19.848Z,5.18
2022-09-12T22:59:22.622Z,5.28
2022-09-12T23:04:25.371Z,4.93
2022-09-12T23:09:34.630Z,4.97
2022-09-12T23:14:38.085Z,5.55
2022-09-12T23:19:40.841Z,5.90
2022-09-12T23:24:45.002Z,5.72
2022-09-12T23:29:52.386Z,6.40
2022-09-12T23:34:55.169Z,6.72
2022-09-12T23:39:59.288Z,6.65
2022-09-12T23:45:02.077Z,5.72
2022-09-12T23:50:05.516Z,5.35
2022-09-12T23:55:10.529Z,6.53
